createdAt,value
2022-09-21T00:01:13.297Z,94671.97
2022-09-21T00:03:43.480Z,94667.31
2022-09-21T00:06:18.842Z,94665.34
2022-09-21T00:08:46.251Z,94674.69
2022-09-21T00:11:20.573Z,94670.50
2022-09-21T00:13:47.803Z,94678.34
2022-09-21T00:16:16.100Z,94685.28
2022-09-21T00:18:43.793Z,94684.94
2022-09-21T00:21:12.770Z,94679.22
2022-09-21T00:23:39.870Z,94673.00
2022-09-21T00:26:13.932Z,94679.38
2022-09-21T00:28:40.871Z,94673.00
2022-09-21T00:31:14.467Z,94678.97
2022-09-21T00:33:42.453Z,94673.63
2022-09-21T00:36:12.208Z,94671.66
2022-09-21T00:38:39.482Z,94671.28
2022-09-21T00:41:07.688Z,94672.28
2022-09-21T00:43:36.041Z,94675.03
2022-09-21T00:46:13.593Z,94669.06
2022-09-21T00:48:41.064Z,94672.03
2022-09-21T00:51:08.491Z,94669.81
2022-09-21T00:53:37.452Z,94672.13
2022-09-21T00:56:05.369Z,94674.38
2022-09-21T00:58:35.882Z,94676.38
2022-09-21T01:01:02.638Z,94673.81
2022-09-21T01:03:30.846Z,94675.00
2022-09-21T01:05:57.531Z,94668.84
2022-09-21T01:08:26.529Z,94674.88
2022-09-21T01:10:56.023Z,94676.22
2022-09-21T01:13:41.204Z,94674.44
2022-09-21T01:16:15.609Z,94683.94
2022-09-21T01:18:57.542Z,94684.75
2022-09-21T01:21:26.752Z,94677.56
2022-09-21T01:24:08.880Z,94677.38
2022-09-21T01:27:12.852Z,94675.53
2022-09-21T01:29:59.999Z,94678.72
2022-09-21T01:33:05.041Z,94683.25
2022-09-21T01:35:35.016Z,94694.81
2022-09-21T01:38:20.733Z,94685.13
2022-09-21T01:41:00.314Z,94675.69
2022-09-21T01:43:40.701Z,94687.06
2022-09-21T01:46:11.474Z,94685.28
2022-09-21T01:48:40.333Z,94684.94
2022-09-21T01:51:10.535Z,94693.19
2022-09-21T01:53:44.772Z,94685.84
2022-09-21T01:56:16.533Z,94683.09
2022-09-21T01:58:47.732Z,94682.78
2022-09-21T02:01:17.312Z,94685.09
2022-09-21T02:04:13.188Z,94690.53
2022-09-21T02:06:42.463Z,94693.91
2022-09-21T02:09:09.882Z,94691.31
2022-09-21T02:11:38.943Z,94687.38
2022-09-21T02:14:09.990Z,94675.41
2022-09-21T02:16:41.642Z,94685.44
2022-09-21T02:19:52.525Z,94690.94
2022-09-21T02:22:30.362Z,94678.66
2022-09-21T02:25:04.720Z,94677.53
2022-09-21T02:27:51.609Z,94681.75
2022-09-21T02:30:24.877Z,94683.03
2022-09-21T02:33:13.641Z,94690.69
2022-09-21T02:35:51.259Z,94697.22
2022-09-21T02:38:27.231Z,94696.72
2022-09-21T02:41:03.705Z,94692.97
2022-09-21T02:43:55.273Z,94693.16
2022-09-21T02:46:27.957Z,94693.09
2022-09-21T02:49:08.681Z,94693.16
2022-09-21T02:51:39.151Z,94690.75
2022-09-21T02:54:08.782Z,94688.00
2022-09-21T02:56:36.084Z,94695.91
2022-09-21T02:59:05.034Z,94687.19
2022-09-21T03:01:32.635Z,94696.03
2022-09-21T03:03:59.472Z,94697.84
2022-09-21T03:06:26.340Z,94702.13
2022-09-21T03:08:52.992Z,94705.94
2022-09-21T03:11:20.505Z,94705.53
2022-09-21T03:13:47.261Z,94704.81
2022-09-21T03:16:14.239Z,94703.84
2022-09-21T03:18:42.282Z,94707.22
2022-09-21T03:21:09.049Z,94709.19
2022-09-21T03:23:35.783Z,94713.09
2022-09-21T03:26:02.692Z,94710.41
2022-09-21T03:28:29.431Z,94716.53
2022-09-21T03:30:56.302Z,94715.56
2022-09-21T03:33:23.234Z,94718.78
2022-09-21T03:35:50.071Z,94708.50
2022-09-21T03:38:17.009Z,94702.75
2022-09-21T03:40:47.702Z,94710.91
2022-09-21T03:43:14.449Z,94720.66
2022-09-21T03:45:42.143Z,94723.28
2022-09-21T03:48:10.511Z,94720.53
2022-09-21T03:50:38.002Z,94717.34
2022-09-21T03:53:05.694Z,94720.53
2022-09-21T03:55:33.320Z,94722.66
2022-09-21T03:58:00.131Z,94727.91
2022-09-21T04:00:27.174Z,94731.63
2022-09-21T04:02:54.045Z,94733.06
2022-09-21T04:05:21.026Z,94734.28
2022-09-21T04:07:47.850Z,94731.13
2022-09-21T04:10:33.314Z,94737.59
2022-09-21T04:13:01.508Z,94735.00
2022-09-21T04:15:29.362Z,94738.22
2022-09-21T04:17:56.450Z,94741.50
2022-09-21T04:20:23.674Z,94738.41
2022-09-21T04:22:51.629Z,94747.75
2022-09-21T04:25:18.429Z,94745.00
2022-09-21T04:27:45.089Z,94742.09
2022-09-21T04:30:13.363Z,94746.78
2022-09-21T04:32:40.416Z,94736.19
2022-09-21T04:35:07.466Z,94745.00
2022-09-21T04:37:34.374Z,94738.06
2022-09-21T04:40:01.169Z,94747.13
2022-09-21T04:42:27.738Z,94738.59
2022-09-21T04:44:54.366Z,94747.28
2022-09-21T04:47:23.708Z,94751.94
2022-09-21T04:49:50.497Z,94742.50
2022-09-21T04:52:19.096Z,94741.06
2022-09-21T04:54:46.514Z,94756.31
2022-09-21T04:57:13.859Z,94755.28
2022-09-21T04:59:40.461Z,94749.34
2022-09-21T05:02:07.117Z,94757.50
2022-09-21T05:04:33.792Z,94751.44
2022-09-21T05:07:00.375Z,94744.53
2022-09-21T05:09:45.614Z,94752.53
2022-09-21T05:12:12.277Z,94755.88
2022-09-21T05:14:39.034Z,94760.69
2022-09-21T05:17:05.765Z,94764.88
2022-09-21T05:19:32.522Z,94768.44
2022-09-21T05:21:59.183Z,94775.00
2022-09-21T05:24:25.844Z,94775.63
2022-09-21T05:26:52.606Z,94775.03
2022-09-21T05:29:19.673Z,94769.00
2022-09-21T05:31:49.313Z,94777.38
2022-09-21T05:34:31.897Z,94776.63
2022-09-21T05:37:36.044Z,94787.31
2022-09-21T05:40:03.170Z,94787.88
2022-09-21T05:42:30.330Z,94786.75
2022-09-21T05:44:57.229Z,94788.47
2022-09-21T05:47:36.836Z,94790.69
2022-09-21T05:50:13.298Z,94802.91
2022-09-21T05:52:55.018Z,94806.41
2022-09-21T05:55:27.145Z,94808.34
2022-09-21T05:58:21.162Z,94813.66
2022-09-21T06:01:20.037Z,94806.34
2022-09-21T06:03:49.606Z,94813.81
2022-09-21T06:06:19.694Z,94810.06
2022-09-21T06:08:46.423Z,94815.81
2022-09-21T06:11:13.685Z,94813.75
2022-09-21T06:13:41.625Z,94815.00
2022-09-21T06:16:08.497Z,94809.50
2022-09-21T06:18:42.556Z,94819.66
2022-09-21T06:21:09.570Z,94811.56
2022-09-21T06:23:36.534Z,94811.63
2022-09-21T06:26:03.553Z,94815.66
2022-09-21T06:28:30.285Z,94811.84
2022-09-21T06:30:59.092Z,94809.44
2022-09-21T06:33:25.900Z,94803.91
2022-09-21T06:35:59.361Z,94803.00
2022-09-21T06:38:27.845Z,94811.72
2022-09-21T06:40:55.324Z,94818.94
2022-09-21T06:43:22.443Z,94823.75
2022-09-21T06:45:57.294Z,94827.22
2022-09-21T06:48:24.704Z,94821.25
2022-09-21T06:50:51.766Z,94821.25
2022-09-21T06:53:18.617Z,94827.84
2022-09-21T06:55:45.464Z,94824.75
2022-09-21T06:58:12.288Z,94824.41
2022-09-21T07:00:39.045Z,94827.44
2022-09-21T07:03:05.839Z,94819.50
2022-09-21T07:05:34.047Z,94825.69
2022-09-21T07:08:01.252Z,94830.22
2022-09-21T07:10:28.634Z,94826.13
2022-09-21T07:12:55.553Z,94826.34
2022-09-21T07:15:22.432Z,94823.97
2022-09-21T07:17:52.401Z,94826.53
2022-09-21T07:20:19.614Z,94824.16
2022-09-21T07:22:46.414Z,94810.53
2022-09-21T07:25:13.527Z,94834.56
2022-09-21T07:27:40.456Z,94839.38
2022-09-21T07:30:08.083Z,94828.97
2022-09-21T07:32:34.857Z,94839.41
2022-09-21T07:35:01.673Z,94839.75
2022-09-21T07:37:28.904Z,94842.94
2022-09-21T07:39:55.685Z,94842.63
2022-09-21T07:42:22.936Z,94841.50
2022-09-21T07:44:51.234Z,94848.94
2022-09-21T07:47:18.553Z,94848.50
2022-09-21T07:49:47.063Z,94852.44
2022-09-21T07:52:15.217Z,94849.13
2022-09-21T07:54:41.913Z,94853.72
2022-09-21T07:57:27.213Z,94864.84
2022-09-21T07:59:54.053Z,94864.72
2022-09-21T08:02:20.835Z,94867.44
2022-09-21T08:04:47.664Z,94871.50
2022-09-21T08:07:14.426Z,94876.94
2022-09-21T08:09:41.895Z,94873.50
2022-09-21T08:12:09.304Z,94872.78
2022-09-21T08:14:36.347Z,94873.06
2022-09-21T08:17:03.126Z,94872.59
2022-09-21T08:19:29.905Z,94870.38
2022-09-21T08:21:58.015Z,94866.19
2022-09-21T08:24:26.923Z,94869.84
2022-09-21T08:26:56.098Z,94868.72
2022-09-21T08:29:24.078Z,94862.38
2022-09-21T08:31:50.839Z,94863.59
2022-09-21T08:34:17.582Z,94866.44
2022-09-21T08:36:44.343Z,94856.66
2022-09-21T08:39:11.117Z,94864.91
2022-09-21T08:41:44.063Z,94853.31
2022-09-21T08:44:34.135Z,94857.97
2022-09-21T08:47:11.521Z,94859.00
2022-09-21T08:49:38.753Z,94866.59
2022-09-21T08:52:14.577Z,94862.50
2022-09-21T08:54:51.590Z,94883.38
2022-09-21T08:57:19.214Z,94892.28
2022-09-21T08:59:48.909Z,94899.78
2022-09-21T09:02:33.850Z,94887.84
2022-09-21T09:05:15.965Z,94900.53
2022-09-21T09:07:52.603Z,94895.59
2022-09-21T09:10:38.543Z,94896.75
2022-09-21T09:13:32.975Z,94888.81
2022-09-21T09:16:15.328Z,94896.63
2022-09-21T09:19:03.896Z,94895.09
2022-09-21T09:21:41.123Z,94901.03
2022-09-21T09:24:15.764Z,94907.47
2022-09-21T09:26:55.725Z,94900.91
2022-09-21T09:29:28.604Z,94904.28
2022-09-21T09:31:56.236Z,94912.63
2022-09-21T09:34:49.204Z,94897.09
2022-09-21T09:37:17.446Z,94905.66
2022-09-21T09:39:53.615Z,94900.69
2022-09-21T09:42:48.052Z,94894.72
2022-09-21T09:45:42.533Z,94896.31
2022-09-21T09:48:30.492Z,94887.28
2022-09-21T09:50:58.211Z,94893.50
2022-09-21T09:53:26.775Z,94887.50
2022-09-21T09:55:55.821Z,94890.69
2022-09-21T09:58:44.132Z,94886.50
2022-09-21T10:01:42.767Z,94884.50
2022-09-21T10:04:18.898Z,94892.31
2022-09-21T10:06:46.924Z,94900.28
2022-09-21T10:09:27.492Z,94894.06
2022-09-21T10:11:59.374Z,94893.66
2022-09-21T10:14:28.352Z,94888.28
2022-09-21T10:16:56.236Z,94883.91
2022-09-21T10:19:25.373Z,94887.06
2022-09-21T10:21:58.362Z,94889.84
2022-09-21T10:24:39.082Z,94881.44
2022-09-21T10:27:16.876Z,94873.84
2022-09-21T10:29:44.576Z,94879.03
2022-09-21T10:32:15.127Z,94867.41
2022-09-21T10:35:00.805Z,94862.63
2022-09-21T10:37:40.252Z,94870.97
2022-09-21T10:40:22.786Z,94857.75
2022-09-21T10:42:52.065Z,94866.22
2022-09-21T10:45:24.927Z,94879.03
2022-09-21T10:47:58.905Z,94869.78
2022-09-21T10:50:25.672Z,94873.41
2022-09-21T10:53:00.153Z,94872.63
2022-09-21T10:55:29.406Z,94864.63
2022-09-21T10:57:57.486Z,94864.41
2022-09-21T11:00:24.406Z,94862.56
2022-09-21T11:02:51.458Z,94856.94
2022-09-21T11:05:30.046Z,94856.56
2022-09-21T11:07:59.924Z,94866.94
2022-09-21T11:10:34.725Z,94862.56
2022-09-21T11:13:35.938Z,94867.09
2022-09-21T11:16:23.316Z,94878.22
2022-09-21T11:19:25.956Z,94879.25
2022-09-21T11:21:56.907Z,94882.06
2022-09-21T11:24:48.554Z,94883.84
2022-09-21T11:27:30.021Z,94875.44
2022-09-21T11:30:18.846Z,94883.66
2022-09-21T11:32:48.364Z,94880.06
2022-09-21T11:35:47.509Z,94876.22
2022-09-21T11:38:38.720Z,94868.63
2022-09-21T11:41:26.172Z,94869.88
2022-09-21T11:44:10.884Z,94867.22
2022-09-21T11:46:49.812Z,94867.44
2022-09-21T11:49:27.986Z,94864.66
2022-09-21T11:52:03.514Z,94867.81
2022-09-21T11:54:45.163Z,94854.63
2022-09-21T11:57:29.242Z,94853.00
2022-09-21T12:00:15.709Z,94869.38
2022-09-21T12:02:52.913Z,94869.00
2022-09-21T12:05:35.776Z,94864.56
2022-09-21T12:08:21.055Z,94860.91
2022-09-21T12:11:06.465Z,94859.28
2022-09-21T12:13:50.634Z,94871.31
2022-09-21T12:16:26.879Z,94872.50
2022-09-21T12:19:06.374Z,94864.88
2022-09-21T12:21:49.254Z,94845.84
2022-09-21T12:24:23.004Z,94842.97
2022-09-21T12:26:56.464Z,94853.66
2022-09-21T12:29:37.304Z,94856.88
2022-09-21T12:32:36.424Z,94851.47
2022-09-21T12:35:05.356Z,94844.34
2022-09-21T12:37:38.774Z,94855.66
2022-09-21T12:40:28.096Z,94861.66
2022-09-21T12:43:19.472Z,94862.78
2022-09-21T12:45:51.548Z,94867.31
2022-09-21T12:48:27.405Z,94856.41
2022-09-21T12:51:06.005Z,94864.22
2022-09-21T12:53:35.663Z,94856.16
2022-09-21T12:56:13.106Z,94844.56
2022-09-21T12:59:30.782Z,94849.34
2022-09-21T13:02:00.493Z,94838.88
2022-09-21T13:04:46.072Z,94842.84
2022-09-21T13:07:51.697Z,94838.25
2022-09-21T13:10:40.123Z,94845.50
2022-09-21T13:13:24.612Z,94846.00
2022-09-21T13:15:52.214Z,94852.22
2022-09-21T13:18:36.303Z,94860.19
2022-09-21T13:21:26.955Z,94853.28
2022-09-21T13:23:58.941Z,94854.16
2022-09-21T13:26:41.264Z,94852.59
2022-09-21T13:29:17.116Z,94853.44
2022-09-21T13:31:59.010Z,94851.50
2022-09-21T13:34:42.842Z,94851.03
2022-09-21T13:37:15.194Z,94850.69
2022-09-21T13:40:06.342Z,94848.78
2022-09-21T13:42:33.200Z,94842.75
2022-09-21T13:45:00.577Z,94844.16
2022-09-21T13:47:40.921Z,94837.47
2022-09-21T13:50:22.295Z,94842.00
2022-09-21T13:52:52.258Z,94835.66
2022-09-21T13:55:32.122Z,94843.88
2022-09-21T13:58:07.470Z,94835.06
2022-09-21T14:00:38.266Z,94839.75
2022-09-21T14:03:18.312Z,94835.50
2022-09-21T14:05:51.334Z,94834.03
2022-09-21T14:08:25.455Z,94831.31
2022-09-21T14:11:10.364Z,94831.22
2022-09-21T14:13:44.064Z,94827.09
2022-09-21T14:16:51.261Z,94828.59
2022-09-21T14:19:18.337Z,94825.72
2022-09-21T14:22:04.081Z,94828.03
2022-09-21T14:24:45.065Z,94811.22
2022-09-21T14:27:17.905Z,94814.59
2022-09-21T14:30:09.338Z,94821.16
2022-09-21T14:32:47.465Z,94822.41
2022-09-21T14:35:18.638Z,94818.50
2022-09-21T14:37:52.229Z,94816.53
2022-09-21T14:40:25.834Z,94808.50
2022-09-21T14:42:54.670Z,94809.16
2022-09-21T14:45:30.694Z,94818.63
2022-09-21T14:48:03.343Z,94815.38
2022-09-21T14:50:30.226Z,94813.47
2022-09-21T14:53:19.016Z,94810.06
2022-09-21T14:56:10.523Z,94817.16
2022-09-21T14:58:55.756Z,94814.75
2022-09-21T15:01:35.392Z,94803.69
2022-09-21T15:04:10.953Z,94809.72
2022-09-21T15:07:18.095Z,94811.53
2022-09-21T15:10:15.584Z,94805.53
2022-09-21T15:12:47.487Z,94798.09
2022-09-21T15:15:28.496Z,94796.72
2022-09-21T15:17:59.739Z,94792.75
2022-09-21T15:20:29.563Z,94785.97
2022-09-21T15:23:00.484Z,94791.91
2022-09-21T15:25:31.735Z,94796.81
2022-09-21T15:28:00.165Z,94792.44
2022-09-21T15:30:29.466Z,94793.69
2022-09-21T15:32:58.305Z,94801.78
2022-09-21T15:35:35.706Z,94800.56
2022-09-21T15:38:02.585Z,94796.41
2022-09-21T15:40:34.571Z,94793.41
2022-09-21T15:43:06.818Z,94786.47
2022-09-21T15:45:52.278Z,94776.91
2022-09-21T15:48:19.940Z,94769.88
2022-09-21T15:50:50.598Z,94775.06
2022-09-21T15:53:30.344Z,94762.91
2022-09-21T15:56:01.115Z,94749.94
2022-09-21T15:58:38.474Z,94752.34
2022-09-21T16:01:11.195Z,94752.72
2022-09-21T16:03:39.106Z,94750.19
2022-09-21T16:06:35.659Z,94754.59
2022-09-21T16:09:25.421Z,94751.22
2022-09-21T16:11:53.559Z,94759.41
2022-09-21T16:14:38.689Z,94760.41
2022-09-21T16:17:18.086Z,94766.00
2022-09-21T16:20:09.526Z,94772.19
2022-09-21T16:22:43.623Z,94759.63
2022-09-21T16:25:37.176Z,94763.03
2022-09-21T16:28:29.482Z,94758.44
2022-09-21T16:30:59.043Z,94763.81
2022-09-21T16:33:58.404Z,94773.00
2022-09-21T16:36:31.939Z,94774.41
2022-09-21T16:39:00.207Z,94770.00
2022-09-21T16:41:40.510Z,94767.41
2022-09-21T16:44:21.113Z,94779.56
2022-09-21T16:46:51.630Z,94774.72
2022-09-21T16:49:20.365Z,94774.53
2022-09-21T16:51:48.603Z,94763.56
2022-09-21T16:54:19.242Z,94775.31
2022-09-21T16:56:46.604Z,94777.53
2022-09-21T16:59:21.780Z,94779.28
2022-09-21T17:01:54.129Z,94779.25
2022-09-21T17:04:28.545Z,94773.88
2022-09-21T17:06:55.736Z,94773.66
2022-09-21T17:09:38.569Z,94771.22
2022-09-21T17:12:07.995Z,94769.38
2022-09-21T17:14:36.075Z,94776.00
2022-09-21T17:17:11.945Z,94782.69
2022-09-21T17:19:40.925Z,94777.22
2022-09-21T17:22:07.888Z,94772.78
2022-09-21T17:24:49.907Z,94783.94
2022-09-21T17:27:20.109Z,94777.13
2022-09-21T17:29:48.502Z,94784.28
2022-09-21T17:32:16.974Z,94768.22
2022-09-21T17:34:43.646Z,94780.94
2022-09-21T17:37:10.517Z,94770.69
2022-09-21T17:39:37.066Z,94772.91
2022-09-21T17:42:12.430Z,94776.34
2022-09-21T17:44:59.609Z,94771.94
2022-09-21T17:47:30.907Z,94775.78
2022-09-21T17:50:17.346Z,94777.91
2022-09-21T17:53:03.085Z,94788.56
2022-09-21T17:55:30.590Z,94787.38
2022-09-21T17:58:12.257Z,94784.91
2022-09-21T18:00:57.396Z,94786.97
2022-09-21T18:03:28.257Z,94791.06
2022-09-21T18:06:00.415Z,94800.50
2022-09-21T18:08:28.781Z,94800.50
2022-09-21T18:11:16.884Z,94805.56
2022-09-21T18:14:03.029Z,94807.25
2022-09-21T18:16:52.243Z,94803.25
2022-09-21T18:19:34.143Z,94814.38
2022-09-21T18:22:18.082Z,94812.19
2022-09-21T18:24:45.777Z,94818.13
2022-09-21T18:27:12.805Z,94822.50
2022-09-21T18:29:41.450Z,94825.81
2022-09-21T18:32:34.402Z,94823.59
2022-09-21T18:35:15.907Z,94831.78
2022-09-21T18:38:07.205Z,94828.66
2022-09-21T18:41:05.042Z,94831.03
2022-09-21T18:43:49.657Z,94838.19
2022-09-21T18:46:35.197Z,94827.66
2022-09-21T18:49:29.093Z,94836.94
2022-09-21T18:52:12.021Z,94835.78
2022-09-21T18:54:39.566Z,94832.84
2022-09-21T18:57:13.322Z,94839.09
2022-09-21T18:59:40.872Z,94836.94
2022-09-21T19:02:16.242Z,94838.09
2022-09-21T19:04:43.996Z,94840.25
2022-09-21T19:07:30.372Z,94843.19
2022-09-21T19:10:05.826Z,94842.34
2022-09-21T19:13:26.329Z,94842.63
2022-09-21T19:16:06.303Z,94844.22
2022-09-21T19:18:55.149Z,94843.00
2022-09-21T19:21:40.395Z,94847.16
2022-09-21T19:24:17.114Z,94848.38
2022-09-21T19:27:26.293Z,94848.44
2022-09-21T19:30:09.210Z,94846.25
2022-09-21T19:32:49.024Z,94846.75
2022-09-21T19:35:27.095Z,94852.34
2022-09-21T19:37:55.903Z,94848.41
2022-09-21T19:40:25.898Z,94847.38
2022-09-21T19:43:05.021Z,94852.25
2022-09-21T19:45:56.100Z,94859.19
2022-09-21T19:48:27.299Z,94864.06
2022-09-21T19:50:55.632Z,94862.09
2022-09-21T19:53:41.428Z,94859.28
2022-09-21T19:56:32.855Z,94867.03
2022-09-21T19:59:18.432Z,94870.91
2022-09-21T20:01:54.124Z,94867.13
2022-09-21T20:04:33.986Z,94864.56
2022-09-21T20:07:10.002Z,94868.09
2022-09-21T20:09:42.784Z,94859.00
2022-09-21T20:12:26.771Z,94863.34
2022-09-21T20:15:15.898Z,94863.63
2022-09-21T20:17:57.624Z,94868.34
2022-09-21T20:20:26.605Z,94863.75
2022-09-21T20:22:54.330Z,94859.69
2022-09-21T20:25:25.540Z,94860.09
2022-09-21T20:27:55.938Z,94864.78
2022-09-21T20:30:26.065Z,94853.25
2022-09-21T20:32:56.886Z,94853.00
2022-09-21T20:35:28.291Z,94857.59
2022-09-21T20:37:59.903Z,94862.63
2022-09-21T20:40:29.072Z,94856.72
2022-09-21T20:42:57.414Z,94852.66
2022-09-21T20:45:24.863Z,94854.59
2022-09-21T20:47:52.752Z,94857.00
2022-09-21T20:50:19.776Z,94859.63
2022-09-21T20:52:46.994Z,94857.81
2022-09-21T20:55:17.323Z,94856.78
2022-09-21T20:57:44.604Z,94861.31
2022-09-21T21:00:14.059Z,94868.75
2022-09-21T21:02:41.476Z,94874.44
2022-09-21T21:05:09.637Z,94869.16
2022-09-21T21:07:36.579Z,94865.25
2022-09-21T21:10:04.079Z,94869.78
2022-09-21T21:12:30.846Z,94867.44
2022-09-21T21:14:59.172Z,94874.13
2022-09-21T21:17:26.032Z,94867.88
2022-09-21T21:19:52.785Z,94873.22
2022-09-21T21:22:19.415Z,94875.34
2022-09-21T21:24:45.990Z,94871.09
2022-09-21T21:27:31.591Z,94873.63
2022-09-21T21:29:58.561Z,94870.25
2022-09-21T21:32:26.359Z,94862.38
2022-09-21T21:34:54.045Z,94869.97
2022-09-21T21:37:23.359Z,94858.16
2022-09-21T21:39:50.103Z,94859.09
2022-09-21T21:42:18.152Z,94855.25
2022-09-21T21:44:46.529Z,94853.69
2022-09-21T21:47:38.046Z,94852.78
2022-09-21T21:50:01.190Z,94851.06
2022-09-21T21:52:27.903Z,94840.75
2022-09-21T21:54:54.816Z,94844.03
2022-09-21T21:57:21.423Z,94843.16
2022-09-21T21:59:48.028Z,94850.81
2022-09-21T22:02:15.549Z,94836.59
2022-09-21T22:04:42.424Z,94844.41
2022-09-21T22:07:09.206Z,94845.44
2022-09-21T22:09:35.982Z,94844.00
2022-09-21T22:12:03.947Z,94847.22
2022-09-21T22:14:30.714Z,94843.16
2022-09-21T22:16:59.299Z,94840.63
2022-09-21T22:19:26.039Z,94839.25
2022-09-21T22:21:54.336Z,94846.28
2022-09-21T22:24:21.871Z,94844.03
2022-09-21T22:26:48.798Z,94841.41
2022-09-21T22:29:17.056Z,94846.56
2022-09-21T22:31:48.744Z,94843.03
2022-09-21T22:34:16.134Z,94837.06
2022-09-21T22:36:45.949Z,94841.22
2022-09-21T22:39:13.045Z,94840.28
2022-09-21T22:41:41.409Z,94836.38
2022-09-21T22:44:08.499Z,94838.03
2022-09-21T22:46:35.717Z,94828.53
2022-09-21T22:49:02.284Z,94831.22
2022-09-21T22:51:29.277Z,94837.03
2022-09-21T22:53:56.353Z,94838.16
2022-09-21T22:56:25.489Z,94834.44
2022-09-21T22:58:54.835Z,94834.16
2022-09-21T23:01:30.401Z,94830.75
2022-09-21T23:04:02.464Z,94828.59
2022-09-21T23:06:34.719Z,94819.41
2022-09-21T23:09:03.307Z,94823.44
2022-09-21T23:11:35.454Z,94816.84
2022-09-21T23:14:02.680Z,94816.78
2022-09-21T23:16:29.950Z,94825.09
2022-09-21T23:18:57.856Z,94822.66
2022-09-21T23:21:26.912Z,94821.22
2022-09-21T23:23:59.964Z,94827.22
2022-09-21T23:26:27.724Z,94821.94
2022-09-21T23:28:56.447Z,94828.13
2022-09-21T23:31:24.282Z,94821.72
2022-09-21T23:33:52.880Z,94813.97
2022-09-21T23:36:21.960Z,94818.00
2022-09-21T23:38:49.791Z,94812.22
2022-09-21T23:41:18.942Z,94822.06
2022-09-21T23:43:46.205Z,94821.78
2022-09-21T23:46:15.498Z,94822.75
2022-09-21T23:48:42.906Z,94822.97
2022-09-21T23:51:10.149Z,94816.56
2022-09-21T23:53:37.647Z,94825.22
2022-09-21T23:56:05.759Z,94816.97
2022-09-21T23:58:33.039Z,94816.63
